AirNav   Everest Fuels
 
 345 users online  

DC09 Medstar Georgetown University Hospital Heliport
Washington, District of Columbia, USA

GOING TO WASHINGTON?


FAA INFORMATION EFFECTIVE 21 MAY 2020

Location

FAA Identifier: DC09
Lat/Long: 38-54-38.0800N 077-04-39.7600W
38-54.634667N 077-04.662667W
38.9105778,-77.0777111
(estimated)
Elevation: 165 ft. / 50 m (estimated)
Variation: 09W (1985)
Time zone: UTC -4 (UTC -5 during Standard Time)
Zip code: 20007

Heliport Operations

Heliport use: Private use, MEDICAL USE.
Activation date: 04/1973
Control tower: no
ARTCC: WASHINGTON CENTER
FSS: LEESBURG FLIGHT SERVICE STATION
Attendance: CONTINUOUS
Wind indicator: yes
Segmented circle: no
Lights: SS-SR

Heliport Communications

WX ASOS at DCA (4 nm SE): 132.65 (703-412-8140)
WX AWOS-3 at CGS (8 nm NE): 121.225 (301-864-5497)
WX AWOS-3PT at GAI (16 nm N): 128.275 (301-977-2971)
WX ASOS at IAD (18 nm W): PHONE 703-661-2990
WX AWOS-3 at FME (18 nm NE): 123.925

Nearby radio navigation aids

VOR radial/distance  VOR name  Freq  Var
DCAr337/3.6WASHINGTON VOR/DME111.0009W
ADWr312/11.7ANDREWS VORTAC113.1010W
AMLr103/18.2ARMEL VOR/DME113.5008W
OTTr318/19.8NOTTINGHAM VORTAC113.7010W
BALr242/24.9BALTIMORE VORTAC115.1011W
FDKr163/(33.1)FREDERICK VOR109.0008W
EMIr195/35.4WESTMINSTER VORTAC117.9008W
BRVr030/36.8BROOKE VORTAC114.5009W

 
NDB name  Hdg/Dist  Freq  Var  ID
GEORGETOWN127/2.532309WGTN --. - -.
OXONN356/9.033211WDCA -.. -.-. .-
DAVEE015/15.022309WDAA -.. .- .-
ELLICOTT223/26.637111WFND ..-. -. -..

Heliport Services

Airframe service: NONE
Powerplant service: NONE

Runway Information

Helipad H1

Dimensions: 100 x 65 ft. / 30 x 20 m
Surface: concrete/turf
Runway edge lights: PERI
Latitude: 38-54.634667N
Longitude: 077-04.662667W
Elevation: 165.0 ft.
Traffic pattern: leftleft

Heliport Ownership and Management from official FAA records

Ownership: Privately-owned
Owner: GEORGETOWN UNIV HOSPITAL
3800 RESERVOIR ROAD NW
WASHINGTON, DC 20007
Phone 202-444-3836
Manager: DAVID CHALMERS
3800 RESERVOIR ROAD NW
WASHINGTON, DC 20007
Phone 202-444-3836
SCOT DEABS 301-552-5726

Additional Remarks

A52-H1 190 FT LGTD BLDG 1100 FT, 122' BLDGS N 900 FT, 50 FT BLDG SW 500 FT, 60 FT TREES W 500 FT. 50 FT STADIUM LIGHTS 50 FT S; 15 FTFENCE 50 FT E.
FOR CD CTC POTOMAC APCH AT 866-599-3874.

Instrument Procedures

There are no published instrument procedures at DC09.

Some nearby airports with instrument procedures:

KDCA - Ronald Reagan Washington National Airport (4 nm SE)
KCGS - College Park Airport (8 nm NE)
KVKX - Potomac Airfield (11 nm SE)
KADW - Joint Base Andrews (12 nm SE)
W32 - Washington Executive Airport/Hyde Field (12 nm SE)
KDAA - Davison Army Airfield (13 nm S)
W00 - Freeway Airport (14 nm E)
KGAI - Montgomery County Airpark (16 nm N)
KIAD - Washington Dulles International Airport (18 nm W)
KFME - Tipton Airport (18 nm NE)
 
Loc | Ops | Rwys | IFR | FBO | Links
Com | Nav | Svcs | Stats | Notes
Area around DC09 (Medstar Georgetown University Hospital Heliport)
 
Road maps at: MapQuest Bing Google
 
Aerial photo
No photo
 
Sectional chart

 
Airport distance calculator
Flying to Medstar Georgetown University Hospital Heliport? Find the distance to fly.

From to DC09

Sunrise and sunset
Times for 06-Jun-2020
 Local
(UTC-4)
 Zulu
(UTC)
Morning civil twilight05:1209:12
Sunrise05:4409:44
Sunset20:3000:30
Evening civil twilight21:0201:02

Current date and time
Zulu (UTC)  06-Jun-2020 09:11:27
Local (UTC-4)  06-Jun-2020 05:11:27
 
METAR
KDCA 
4nm SE 
060852Z 20003KT 10SM SCT006 BKN120 22/21 A2985 RMK AO2 SLP107 60000 T02220211 58002
KCGS 
8nm NE 
060855Z AUTO 00000KT 1 1/2SM VV007 A2984 RMK AO1 VIS 1V4
KADW 
11nm SE 
060856Z COR 26006KT 10SM BKN003 22/22 A2984 RMK AO2A SLP109 60000 T02180218 58002 $ COR 0857
KDAA 
12nm S 
060756Z AUTO 00000KT 4SM BR BKN110 21/21 A2986 RMK AO2 SLP114 T02120207 TSNO $
KGAI 
16nm N 
060904Z AUTO 29003KT 1 3/4SM BR OVC002 21/20 A2987 RMK AO2
KIAD 
17nm W 
060901Z 23003KT 3/4SM R01R/P6000FT BR VV001 21/19 A2986 RMK AO2 T02060194 $
KFME 
18nm NE 
060855Z AUTO 00000KT 2 1/2SM SCT001 18/18 A2986 RMK AO1
TAF
KDCA 
4nm SE 
060543Z 0606/0712 21003KT P6SM BKN120 FM060800 24003KT 5SM BR BKN008 FM061200 28004KT P6SM SCT110 FM061400 29008G16KT P6SM SCT050 FM061800 31010G17KT P6SM SCT050 FM070000 33008KT P6SM FEW050
KADW 
11nm SE 
060400Z 0604/0707 28006KT 9999 SCT040 BKN250 QNH2987INS TEMPO 0604/0605 OVC003 BECMG 0608/0609 28006KT 6000 BR FEW040 BKN120 BKN250 QNH2985INS BECMG 0611/0612 30010KT 9999 NSW FEW030 QNH2982INS TEMPO 0617/0621 32010G20KT 9000 -SHRA VCTS FEW030CB SCT050 BECMG 0622/0623 31010KT 9999 SKC QNH2981INS TX32/0619Z TN18/0610Z
KDAA 
12nm S 
060100Z 0601/0707 VRB06KT 8000 -RA SCT010 BKN020 QNH2984INS BECMG 0609/0610 30006KT 8000 BR FEW015 SCT020 QNH2985INS BECMG 0617/0618 29006KT 9000 -RA FEW030 SCT050 QNH2976INS TEMPO 0618/0624 28012G18KT 8000 -TSRA OVC010CB BECMG 0701/0702 34009KT 9999 NSW FEW030 SCT050 QNH2983INS TX34/0620Z TN21/0610Z LAST NO AMDS AFT 0601 NEXT 0809
KIAD 
17nm W 
060543Z 0606/0712 00000KT 6SM BR BKN120 FM060800 00000KT 2SM BR BKN005 FM061200 28005KT 6SM BR SCT100 FM061400 29008G16KT P6SM SCT050 FM061800 31010G20KT P6SM SCT050 FM070000 33008KT P6SM FEW050
NOTAMs
Click for the latest NOTAMs
NOTAMs are issued by the DoD/FAA and will open in a separate window not controlled by AirNav.

 

 
 

Would you like to see your business listed on this page?

 If your business provides an interesting product or service to pilots, flight crews, aircraft, or users of the Medstar Georgetown University Hospital Heliport, you should consider listing it here.  To start the listing process, click on the button below
 
Add a business
 

Other Pages about Medstar Georgetown University Hospital Heliport

Update a link
 
Copyright © AirNav, LLC. All rights reserved. Privacy Policy  Contact